MiSS Monie — WCZ9166 — position and weather

sailwx.info

Track history (hours):
 
Tides and Currents Weather Stations Pressure Air Temp Water Temp Dewpoint Dewpoint Depression Visibility Wind Speed Wind Dir Waves Ship Positions

MiSS Monie

Owner: MISS MONIE TOWING LLC, HULL, TX. More information available from US FCC via Universal Licensing System and Coast Guard Vessel Documentation Center.

Last reported at 2017-Oct-19 09:29 UTC. Time now 2017-Oct-19 14:26 UTC.
Position N 29°46' W 095°06'.

Length 20 m.

Type: Ship. MMSI: 366962010.

Date/timePositionNaut miles runAvg speedWind from/ knotsBaromVisibWave heightAir tempDewpointWater temp
2017-Oct-19 09:29N 29°46' W 095°06'0 0.0
2017-Oct-19 08:50N 29°46' W 095°06'0 0.0
2017-Oct-19 07:17N 29°46' W 095°06'0 0.0
2017-Oct-19 04:19N 29°46' W 095°06'0 0.0
2017-Oct-19 03:59N 29°46' W 095°06'0 0.0
2017-Oct-18 12:28N 29°46' W 095°06'0 0.0
2017-Oct-18 04:42N 29°46' W 095°06'0 0.0
2017-Oct-18 04:29N 29°46' W 095°06'  
2017-Oct-15 11:51N 29°43' W 095°01'2 5.3
2017-Oct-15 11:26N 29°42' W 094°59'3 6.1
2017-Oct-15 10:56N 29°39' W 094°58'2 4.5
2017-Oct-15 10:30N 29°37' W 094°58'2 5.0
2017-Oct-15 10:00N 29°37' W 095°01'0 0.0
2017-Oct-15 09:30N 29°37' W 095°01'0 0.0
2017-Oct-15 09:00N 29°37' W 095°01'0 0.0
2017-Oct-15 08:30N 29°37' W 095°01'0 0.0
2017-Oct-15 08:00N 29°37' W 095°01'0 0.0
2017-Oct-15 07:30N 29°37' W 095°01'0 0.0
2017-Oct-15 07:00N 29°37' W 095°01'0 0.0
2017-Oct-15 06:30N 29°37' W 095°01'0 0.0
2017-Oct-15 06:00N 29°37' W 095°01'0 0.0
2017-Oct-15 05:30N 29°37' W 095°01'0 0.0
2017-Oct-15 05:00N 29°37' W 095°01'0 0.0
2017-Oct-15 04:30N 29°37' W 095°01'0 0.0
2017-Oct-15 03:58N 29°37' W 095°01'0 0.0
2017-Oct-15 03:30N 29°37' W 095°01'0 0.0
2017-Oct-15 02:58N 29°37' W 095°01'0 0.0
2017-Oct-15 02:30N 29°37' W 095°01'0 0.0
2017-Oct-15 02:00N 29°37' W 095°01'0 0.0
2017-Oct-15 01:30N 29°37' W 095°01'0 0.0
2017-Oct-15 00:59N 29°37' W 095°01'0 0.0
2017-Oct-15 00:30N 29°37' W 095°01'0 0.0
2017-Oct-15 00:00N 29°37' W 095°01'0 0.0
2017-Oct-14 23:30N 29°37' W 095°01'0 0.3
2017-Oct-14 23:00N 29°36' W 095°01'2 4.2
2017-Oct-14 22:30N 29°37' W 094°59'2 4.6
2017-Oct-14 21:59N 29°39' W 094°58'3 6.4
2017-Oct-14 21:28N 29°42' W 095°00'4 1.0
2017-Oct-14 17:47N 29°44' W 095°04'2 4.8
2017-Oct-14 17:17N 29°43' W 095°01'1 3.3
2017-Oct-14 17:00N 29°42' W 095°02'6 0.2
2017-Oct-13 14:48N 29°44' W 095°08'4 1.3
2017-Oct-13 11:20N 29°43' W 095°13'2 0.6
2017-Oct-13 08:29N 29°44' W 095°15'0 0.0
2017-Oct-12 22:59N 29°43' W 095°15'0 0.0
2017-Oct-12 19:42N 29°43' W 095°15'0 0.0
2017-Oct-12 12:59N 29°43' W 095°15'0 0.0
2017-Oct-12 11:16N 29°43' W 095°15'0 0.0
2017-Oct-12 10:48N 29°43' W 095°15'0 0.0
2017-Oct-12 09:36N 29°43' W 095°15'0 0.0
2017-Oct-12 09:08N 29°43' W 095°15'0 0.0
2017-Oct-12 09:00N 29°43' W 095°15'0 0.0
2017-Oct-12 08:30N 29°43' W 095°15'0 0.0
2017-Oct-12 07:47N 29°43' W 095°15'0 0.1
2017-Oct-12 07:23N 29°43' W 095°15'0 0.0
2017-Oct-12 06:10N 29°43' W 095°15'0 0.0
2017-Oct-12 05:59N 29°43' W 095°15'0 0.0
2017-Oct-12 04:52N 29°43' W 095°15'0 0.0
2017-Oct-12 04:26N 29°43' W 095°15'0 0.0
2017-Oct-12 03:25N 29°43' W 095°15'0 0.0
2017-Oct-10 08:05N 29°43' W 095°15'0 0.1
2017-Oct-10 08:00N 29°43' W 095°15'0 0.0
2017-Oct-09 18:44N 29°43' W 095°15'  
Track history (hours):
 
Tides and Currents Weather Stations Pressure Air Temp Water Temp Dewpoint Dewpoint Depression Visibility Wind Speed Wind Dir Waves Ship Positions

MiSS Monie

Owner: MISS MONIE TOWING LLC, HULL, TX. More information available from US FCC via Universal Licensing System and Coast Guard Vessel Documentation Center.

Last reported at 2017-Oct-19 09:29 UTC. Time now 2017-Oct-19 14:26 UTC.
Position N 29°46' W 095°06'.

Length 20 m.

Type: Ship. MMSI: 366962010.

Date/timePositionNaut miles runAvg speedWind from/ knotsBaromVisibWave heightAir tempDewpointWater temp
2017-Oct-19 09:29N 29°46' W 095°06'0 0.0
2017-Oct-19 08:50N 29°46' W 095°06'0 0.0
2017-Oct-19 07:17N 29°46' W 095°06'0 0.0
2017-Oct-19 04:19N 29°46' W 095°06'0 0.0
2017-Oct-19 03:59N 29°46' W 095°06'0 0.0
2017-Oct-18 12:28N 29°46' W 095°06'0 0.0
2017-Oct-18 04:42N 29°46' W 095°06'0 0.0
2017-Oct-18 04:29N 29°46' W 095°06'  
2017-Oct-15 11:51N 29°43' W 095°01'2 5.3
2017-Oct-15 11:26N 29°42' W 094°59'3 6.1
2017-Oct-15 10:56N 29°39' W 094°58'2 4.5
2017-Oct-15 10:30N 29°37' W 094°58'2 5.0
2017-Oct-15 10:00N 29°37' W 095°01'0 0.0
2017-Oct-15 09:30N 29°37' W 095°01'0 0.0
2017-Oct-15 09:00N 29°37' W 095°01'0 0.0
2017-Oct-15 08:30N 29°37' W 095°01'0 0.0
2017-Oct-15 08:00N 29°37' W 095°01'0 0.0
2017-Oct-15 07:30N 29°37' W 095°01'0 0.0
2017-Oct-15 07:00N 29°37' W 095°01'0 0.0
2017-Oct-15 06:30N 29°37' W 095°01'0 0.0
2017-Oct-15 06:00N 29°37' W 095°01'0 0.0
2017-Oct-15 05:30N 29°37' W 095°01'0 0.0
2017-Oct-15 05:00N 29°37' W 095°01'0 0.0
2017-Oct-15 04:30N 29°37' W 095°01'0 0.0
2017-Oct-15 03:58N 29°37' W 095°01'0 0.0
2017-Oct-15 03:30N 29°37' W 095°01'0 0.0
2017-Oct-15 02:58N 29°37' W 095°01'0 0.0
2017-Oct-15 02:30N 29°37' W 095°01'0 0.0
2017-Oct-15 02:00N 29°37' W 095°01'0 0.0
2017-Oct-15 01:30N 29°37' W 095°01'0 0.0
2017-Oct-15 00:59N 29°37' W 095°01'0 0.0
2017-Oct-15 00:30N 29°37' W 095°01'0 0.0
2017-Oct-15 00:00N 29°37' W 095°01'0 0.0
2017-Oct-14 23:30N 29°37' W 095°01'0 0.3
2017-Oct-14 23:00N 29°36' W 095°01'2 4.2
2017-Oct-14 22:30N 29°37' W 094°59'2 4.6
2017-Oct-14 21:59N 29°39' W 094°58'3 6.4
2017-Oct-14 21:28N 29°42' W 095°00'4 1.0
2017-Oct-14 17:47N 29°44' W 095°04'2 4.8
2017-Oct-14 17:17N 29°43' W 095°01'1 3.3
2017-Oct-14 17:00N 29°42' W 095°02'6 0.2
2017-Oct-13 14:48N 29°44' W 095°08'4 1.3
2017-Oct-13 11:20N 29°43' W 095°13'2 0.6
2017-Oct-13 08:29N 29°44' W 095°15'0 0.0
2017-Oct-12 22:59N 29°43' W 095°15'0 0.0
2017-Oct-12 19:42N 29°43' W 095°15'0 0.0
2017-Oct-12 12:59N 29°43' W 095°15'0 0.0
2017-Oct-12 11:16N 29°43' W 095°15'0 0.0
2017-Oct-12 10:48N 29°43' W 095°15'0 0.0
2017-Oct-12 09:36N 29°43' W 095°15'0 0.0
2017-Oct-12 09:08N 29°43' W 095°15'0 0.0
2017-Oct-12 09:00N 29°43' W 095°15'0 0.0
2017-Oct-12 08:30N 29°43' W 095°15'0 0.0
2017-Oct-12 07:47N 29°43' W 095°15'0 0.1
2017-Oct-12 07:23N 29°43' W 095°15'0 0.0
2017-Oct-12 06:10N 29°43' W 095°15'0 0.0
2017-Oct-12 05:59N 29°43' W 095°15'0 0.0
2017-Oct-12 04:52N 29°43' W 095°15'0 0.0
2017-Oct-12 04:26N 29°43' W 095°15'0 0.0
2017-Oct-12 03:25N 29°43' W 095°15'0 0.0
2017-Oct-10 08:05N 29°43' W 095°15'0 0.1
2017-Oct-10 08:00N 29°43' W 095°15'0 0.0
2017-Oct-09 18:44N 29°43' W 095°15'  

Dump ship's entire track history